sensor_id;sensor_type;location;lat;lon;timestamp;pressure;altitude;pressure_sealevel;temperature;humidity
51067;BME280;37112;45.892;-123.962;2023-08-21T00:00:18;101142.60;;;18.12;65.88
51067;BME280;37112;45.892;-123.962;2023-08-21T00:02:48;101139.94;;;18.14;65.61
51067;BME280;37112;45.892;-123.962;2023-08-21T00:04:58;101139.47;;;18.23;65.88
51067;BME280;37112;45.892;-123.962;2023-08-21T00:07:07;101137.16;;;18.35;65.57
51067;BME280;37112;45.892;-123.962;2023-08-21T00:09:18;101134.18;;;18.46;65.30
51067;BME280;37112;45.892;-123.962;2023-08-21T00:11:28;101139.95;;;18.57;64.84
51067;BME280;37112;45.892;-123.962;2023-08-21T00:13:37;101136.60;;;18.58;64.32
51067;BME280;37112;45.892;-123.962;2023-08-21T00:15:47;101135.56;;;18.66;64.64
51067;BME280;37112;45.892;-123.962;2023-08-21T00:17:57;101133.18;;;18.80;64.32
51067;BME280;37112;45.892;-123.962;2023-08-21T00:20:10;101129.11;;;18.88;63.70
51067;BME280;37112;45.892;-123.962;2023-08-21T00:22:19;101131.79;;;18.92;63.17
51067;BME280;37112;45.892;-123.962;2023-08-21T00:24:29;101136.02;;;18.86;62.31
51067;BME280;37112;45.892;-123.962;2023-08-21T00:26:39;101134.03;;;18.73;62.08
51067;BME280;37112;45.892;-123.962;2023-08-21T00:28:48;101129.65;;;18.60;61.86
51067;BME280;37112;45.892;-123.962;2023-08-21T00:31:03;101128.59;;;18.50;62.01
51067;BME280;37112;45.892;-123.962;2023-08-21T00:33:13;101130.98;;;18.38;62.21
51067;BME280;37112;45.892;-123.962;2023-08-21T00:35:23;101125.73;;;18.36;62.39
51067;BME280;37112;45.892;-123.962;2023-08-21T00:37:33;101128.84;;;18.30;61.99
51067;BME280;37112;45.892;-123.962;2023-08-21T00:39:43;101136.48;;;18.24;62.55
51067;BME280;37112;45.892;-123.962;2023-08-21T00:41:53;101136.09;;;18.18;62.44
51067;BME280;37112;45.892;-123.962;2023-08-21T00:44:02;101132.55;;;18.12;62.44
51067;BME280;37112;45.892;-123.962;2023-08-21T00:46:13;101138.56;;;18.13;62.94
51067;BME280;37112;45.892;-123.962;2023-08-21T00:48:23;101137.93;;;18.18;63.16
51067;BME280;37112;45.892;-123.962;2023-08-21T00:50:33;101140.20;;;18.20;63.18
51067;BME280;37112;45.892;-123.962;2023-08-21T00:52:45;101144.15;;;18.24;62.69
51067;BME280;37112;45.892;-123.962;2023-08-21T00:54:54;101146.02;;;18.20;62.54
51067;BME280;37112;45.892;-123.962;2023-08-21T00:57:06;101150.80;;;18.17;62.99
51067;BME280;37112;45.892;-123.962;2023-08-21T00:59:15;101149.74;;;18.16;63.11
51067;BME280;37112;45.892;-123.962;2023-08-21T01:01:26;101147.84;;;18.20;63.24
51067;BME280;37112;45.892;-123.962;2023-08-21T01:03:36;101145.73;;;18.26;63.31
51067;BME280;37112;45.892;-123.962;2023-08-21T01:05:45;101147.80;;;18.31;63.17
51067;BME280;37112;45.892;-123.962;2023-08-21T01:07:59;101147.58;;;18.34;62.86
51067;BME280;37112;45.892;-123.962;2023-08-21T01:10:14;101146.21;;;18.33;62.77
51067;BME280;37112;45.892;-123.962;2023-08-21T01:12:29;101145.52;;;18.33;63.09
51067;BME280;37112;45.892;-123.962;2023-08-21T01:14:50;101148.14;;;18.39;63.42
51067;BME280;37112;45.892;-123.962;2023-08-21T01:17:02;101150.63;;;18.51;63.53
51067;BME280;37112;45.892;-123.962;2023-08-21T01:19:24;101151.13;;;18.49;62.26
51067;BME280;37112;45.892;-123.962;2023-08-21T01:21:35;101152.96;;;18.38;62.18
51067;BME280;37112;45.892;-123.962;2023-08-21T01:23:45;101149.88;;;18.28;62.27
51067;BME280;37112;45.892;-123.962;2023-08-21T01:25:54;101157.20;;;18.19;62.45
51067;BME280;37112;45.892;-123.962;2023-08-21T01:28:04;101159.45;;;18.08;62.84
51067;BME280;37112;45.892;-123.962;2023-08-21T01:30:15;101161.70;;;17.99;62.97
51067;BME280;37112;45.892;-123.962;2023-08-21T01:32:43;101161.45;;;17.91;63.23
51067;BME280;37112;45.892;-123.962;2023-08-21T01:34:57;101163.41;;;17.77;63.32
51067;BME280;37112;45.892;-123.962;2023-08-21T01:37:09;101152.77;;;17.70;63.70
51067;BME280;37112;45.892;-123.962;2023-08-21T01:39:20;101155.14;;;17.67;63.96
51067;BME280;37112;45.892;-123.962;2023-08-21T01:41:29;101155.95;;;17.64;64.05
51067;BME280;37112;45.892;-123.962;2023-08-21T01:43:39;101157.91;;;17.66;64.38
51067;BME280;37112;45.892;-123.962;2023-08-21T01:45:49;101159.91;;;17.64;64.42
51067;BME280;37112;45.892;-123.962;2023-08-21T01:47:59;101161.89;;;17.58;64.39
51067;BME280;37112;45.892;-123.962;2023-08-21T01:50:10;101159.11;;;17.55;64.63
51067;BME280;37112;45.892;-123.962;2023-08-21T01:52:20;101155.73;;;17.52;64.72
51067;BME280;37112;45.892;-123.962;2023-08-21T01:54:29;101156.36;;;17.45;64.78
51067;BME280;37112;45.892;-123.962;2023-08-21T01:56:39;101159.42;;;17.39;64.95
51067;BME280;37112;45.892;-123.962;2023-08-21T01:58:49;101158.58;;;17.35;65.03
51067;BME280;37112;45.892;-123.962;2023-08-21T02:00:59;101162.19;;;17.34;65.19
51067;BME280;37112;45.892;-123.962;2023-08-21T02:03:08;101164.57;;;17.36;65.36
51067;BME280;37112;45.892;-123.962;2023-08-21T02:05:18;101166.59;;;17.37;65.07
51067;BME280;37112;45.892;-123.962;2023-08-21T02:07:28;101168.69;;;17.38;65.20
51067;BME280;37112;45.892;-123.962;2023-08-21T02:09:38;101163.22;;;17.39;65.24
51067;BME280;37112;45.892;-123.962;2023-08-21T02:11:49;101156.92;;;17.39;65.12
51067;BME280;37112;45.892;-123.962;2023-08-21T02:13:59;101161.20;;;17.36;64.88
51067;BME280;37112;45.892;-123.962;2023-08-21T02:16:09;101163.09;;;17.31;65.00
51067;BME280;37112;45.892;-123.962;2023-08-21T02:18:20;101165.95;;;17.26;65.05
51067;BME280;37112;45.892;-123.962;2023-08-21T02:20:30;101165.52;;;17.19;65.04
51067;BME280;37112;45.892;-123.962;2023-08-21T02:22:40;101166.39;;;17.15;65.39
51067;BME280;37112;45.892;-123.962;2023-08-21T02:24:49;101168.91;;;17.05;65.60
51067;BME280;37112;45.892;-123.962;2023-08-21T02:26:59;101168.61;;;16.94;65.75
51067;BME280;37112;45.892;-123.962;2023-08-21T02:29:09;101169.71;;;16.87;65.83
51067;BME280;37112;45.892;-123.962;2023-08-21T02:31:18;101168.14;;;16.87;66.16
51067;BME280;37112;45.892;-123.962;2023-08-21T02:33:30;101166.98;;;16.86;66.33
51067;BME280;37112;45.892;-123.962;2023-08-21T02:35:40;101171.33;;;16.86;66.42
51067;BME280;37112;45.892;-123.962;2023-08-21T02:37:50;101175.95;;;16.86;66.49
51067;BME280;37112;45.892;-123.962;2023-08-21T02:40:00;101177.62;;;16.86;66.57
51067;BME280;37112;45.892;-123.962;2023-08-21T02:42:10;101181.27;;;16.85;66.52
51067;BME280;37112;45.892;-123.962;2023-08-21T02:44:20;101180.87;;;16.83;66.56
51067;BME280;37112;45.892;-123.962;2023-08-21T02:46:29;101179.88;;;16.80;66.59
51067;BME280;37112;45.892;-123.962;2023-08-21T02:48:39;101185.87;;;16.77;66.58
51067;BME280;37112;45.892;-123.962;2023-08-21T02:50:48;101186.52;;;16.74;66.66
51067;BME280;37112;45.892;-123.962;2023-08-21T02:52:58;101186.48;;;16.68;66.69
51067;BME280;37112;45.892;-123.962;2023-08-21T02:55:09;101188.89;;;16.60;66.67
51067;BME280;37112;45.892;-123.962;2023-08-21T02:57:18;101190.60;;;16.53;66.82
51067;BME280;37112;45.892;-123.962;2023-08-21T02:59:29;101194.09;;;16.50;67.05
51067;BME280;37112;45.892;-123.962;2023-08-21T03:01:38;101189.95;;;16.48;67.23
51067;BME280;37112;45.892;-123.962;2023-08-21T03:03:48;101186.38;;;16.44;67.14
51067;BME280;37112;45.892;-123.962;2023-08-21T03:05:57;101188.52;;;16.41;67.30
51067;BME280;37112;45.892;-123.962;2023-08-21T03:08:07;101182.14;;;16.39;67.40
51067;BME280;37112;45.892;-123.962;2023-08-21T03:10:18;101189.36;;;16.36;67.53
51067;BME280;37112;45.892;-123.962;2023-08-21T03:12:28;101190.86;;;16.33;67.54
51067;BME280;37112;45.892;-123.962;2023-08-21T03:14:38;101194.39;;;16.32;67.67
51067;BME280;37112;45.892;-123.962;2023-08-21T03:16:48;101194.45;;;16.29;67.72
51067;BME280;37112;45.892;-123.962;2023-08-21T03:18:58;101192.48;;;16.25;67.73
51067;BME280;37112;45.892;-123.962;2023-08-21T03:21:09;101190.17;;;16.20;67.93
51067;BME280;37112;45.892;-123.962;2023-08-21T03:23:19;101188.40;;;16.18;68.01
51067;BME280;37112;45.892;-123.962;2023-08-21T03:25:30;101189.84;;;16.15;68.15
51067;BME280;37112;45.892;-123.962;2023-08-21T03:27:40;101194.85;;;16.11;68.21
51067;BME280;37112;45.892;-123.962;2023-08-21T03:29:53;101199.55;;;16.06;68.17
51067;BME280;37112;45.892;-123.962;2023-08-21T03:32:02;101201.77;;;16.04;68.34
51067;BME280;37112;45.892;-123.962;2023-08-21T03:34:12;101202.36;;;16.01;68.49
51067;BME280;37112;45.892;-123.962;2023-08-21T03:36:22;101202.41;;;15.98;68.56
51067;BME280;37112;45.892;-123.962;2023-08-21T03:38:40;101206.55;;;15.93;68.93
51067;BME280;37112;45.892;-123.962;2023-08-21T03:40:50;101209.05;;;15.87;69.04
51067;BME280;37112;45.892;-123.962;2023-08-21T03:43:00;101207.94;;;15.81;69.01
51067;BME280;37112;45.892;-123.962;2023-08-21T03:45:10;101209.67;;;15.77;69.31
51067;BME280;37112;45.892;-123.962;2023-08-21T03:47:20;101206.59;;;15.71;69.36
51067;BME280;37112;45.892;-123.962;2023-08-21T03:49:36;101203.95;;;15.66;69.58
51067;BME280;37112;45.892;-123.962;2023-08-21T03:51:45;101206.59;;;15.62;69.78
51067;BME280;37112;45.892;-123.962;2023-08-21T03:53:55;101213.38;;;15.60;69.86
51067;BME280;37112;45.892;-123.962;2023-08-21T03:56:05;101214.23;;;15.58;70.07
51067;BME280;37112;45.892;-123.962;2023-08-21T03:58:15;101218.87;;;15.56;70.20
51067;BME280;37112;45.892;-123.962;2023-08-21T04:00:25;101224.10;;;15.51;70.31
51067;BME280;37112;45.892;-123.962;2023-08-21T04:02:35;101226.13;;;15.48;70.43
51067;BME280;37112;45.892;-123.962;2023-08-21T04:04:45;101225.52;;;15.49;70.65
51067;BME280;37112;45.892;-123.962;2023-08-21T04:06:55;101230.55;;;15.51;70.76
51067;BME280;37112;45.892;-123.962;2023-08-21T04:09:04;101230.45;;;15.52;70.90
51067;BME280;37112;45.892;-123.962;2023-08-21T04:11:14;101232.30;;;15.54;70.96
51067;BME280;37112;45.892;-123.962;2023-08-21T04:13:25;101233.89;;;15.54;70.95
51067;BME280;37112;45.892;-123.962;2023-08-21T04:15:35;101239.16;;;15.53;70.90
51067;BME280;37112;45.892;-123.962;2023-08-21T04:17:45;101238.80;;;15.51;71.07
51067;BME280;37112;45.892;-123.962;2023-08-21T04:19:55;101242.54;;;15.49;71.28
51067;BME280;37112;45.892;-123.962;2023-08-21T04:22:05;101239.86;;;15.46;71.35
51067;BME280;37112;45.892;-123.962;2023-08-21T04:24:15;101246.33;;;15.46;71.46
51067;BME280;37112;45.892;-123.962;2023-08-21T04:26:24;101242.55;;;15.46;71.66
51067;BME280;37112;45.892;-123.962;2023-08-21T04:28:35;101250.48;;;15.48;71.88
51067;BME280;37112;45.892;-123.962;2023-08-21T04:30:45;101249.81;;;15.50;71.91
51067;BME280;37112;45.892;-123.962;2023-08-21T04:32:55;101251.16;;;15.53;72.11
51067;BME280;37112;45.892;-123.962;2023-08-21T04:35:06;101251.24;;;15.56;72.17
51067;BME280;37112;45.892;-123.962;2023-08-21T04:37:17;101254.33;;;15.56;72.10
51067;BME280;37112;45.892;-123.962;2023-08-21T04:39:27;101257.17;;;15.54;72.12
51067;BME280;37112;45.892;-123.962;2023-08-21T04:41:37;101258.35;;;15.52;72.13
51067;BME280;37112;45.892;-123.962;2023-08-21T04:43:49;101257.64;;;15.52;72.17
51067;BME280;37112;45.892;-123.962;2023-08-21T04:45:58;101262.12;;;15.54;72.25
51067;BME280;37112;45.892;-123.962;2023-08-21T04:48:09;101262.77;;;15.55;72.47
51067;BME280;37112;45.892;-123.962;2023-08-21T04:50:19;101261.03;;;15.52;72.52
51067;BME280;37112;45.892;-123.962;2023-08-21T04:52:29;101261.27;;;15.52;72.61
51067;BME280;37112;45.892;-123.962;2023-08-21T04:54:39;101260.17;;;15.52;72.73
51067;BME280;37112;45.892;-123.962;2023-08-21T04:56:52;101262.29;;;15.54;72.94
51067;BME280;37112;45.892;-123.962;2023-08-21T04:59:02;101258.48;;;15.53;72.93
51067;BME280;37112;45.892;-123.962;2023-08-21T05:01:12;101260.77;;;15.49;72.99
51067;BME280;37112;45.892;-123.962;2023-08-21T05:03:24;101255.83;;;15.46;73.04
51067;BME280;37112;45.892;-123.962;2023-08-21T05:05:34;101254.66;;;15.45;73.19
51067;BME280;37112;45.892;-123.962;2023-08-21T05:07:44;101250.07;;;15.44;73.24
51067;BME280;37112;45.892;-123.962;2023-08-21T05:09:54;101254.23;;;15.44;73.43
51067;BME280;37112;45.892;-123.962;2023-08-21T05:12:07;101251.71;;;15.42;73.56
51067;BME280;37112;45.892;-123.962;2023-08-21T05:14:16;101249.77;;;15.39;73.68
51067;BME280;37112;45.892;-123.962;2023-08-21T05:16:27;101241.58;;;15.36;73.73
51067;BME280;37112;45.892;-123.962;2023-08-21T05:18:36;101239.88;;;15.35;74.05
51067;BME280;37112;45.892;-123.962;2023-08-21T05:20:46;101229.20;;;15.32;73.93
51067;BME280;37112;45.892;-123.962;2023-08-21T05:22:56;101227.79;;;15.32;74.05
51067;BME280;37112;45.892;-123.962;2023-08-21T05:25:07;101225.54;;;15.31;74.06
51067;BME280;37112;45.892;-123.962;2023-08-21T05:27:17;101222.02;;;15.30;74.38
51067;BME280;37112;45.892;-123.962;2023-08-21T05:29:26;101219.62;;;15.27;74.31
51067;BME280;37112;45.892;-123.962;2023-08-21T05:31:37;101224.87;;;15.26;74.35
51067;BME280;37112;45.892;-123.962;2023-08-21T05:33:47;101221.77;;;15.24;74.48
51067;BME280;37112;45.892;-123.962;2023-08-21T05:35:57;101222.73;;;15.23;74.54
51067;BME280;37112;45.892;-123.962;2023-08-21T05:38:07;101218.12;;;15.23;74.55
51067;BME280;37112;45.892;-123.962;2023-08-21T05:40:17;101219.66;;;15.21;74.72
51067;BME280;37112;45.892;-123.962;2023-08-21T05:42:27;101216.53;;;15.18;74.72
51067;BME280;37112;45.892;-123.962;2023-08-21T05:44:36;101215.75;;;15.19;74.97
51067;BME280;37112;45.892;-123.962;2023-08-21T05:46:47;101217.73;;;15.19;74.99
51067;BME280;37112;45.892;-123.962;2023-08-21T05:48:57;101213.53;;;15.15;74.86
51067;BME280;37112;45.892;-123.962;2023-08-21T05:51:08;101213.39;;;15.15;75.19
51067;BME280;37112;45.892;-123.962;2023-08-21T05:53:18;101210.02;;;15.12;75.11
51067;BME280;37112;45.892;-123.962;2023-08-21T05:55:28;101209.61;;;15.11;75.19
51067;BME280;37112;45.892;-123.962;2023-08-21T05:57:37;101208.52;;;15.09;75.26
51067;BME280;37112;45.892;-123.962;2023-08-21T05:59:47;101214.18;;;15.07;75.28
51067;BME280;37112;45.892;-123.962;2023-08-21T06:01:57;101211.23;;;15.06;75.44
51067;BME280;37112;45.892;-123.962;2023-08-21T06:04:07;101203.04;;;15.05;75.41
51067;BME280;37112;45.892;-123.962;2023-08-21T06:06:21;101202.06;;;15.06;75.53
51067;BME280;37112;45.892;-123.962;2023-08-21T06:08:31;101202.69;;;15.08;75.55
51067;BME280;37112;45.892;-123.962;2023-08-21T06:10:40;101205.57;;;15.08;75.53
51067;BME280;37112;45.892;-123.962;2023-08-21T06:12:50;101201.98;;;15.08;75.53
51067;BME280;37112;45.892;-123.962;2023-08-21T06:14:59;101199.05;;;15.06;75.53
51067;BME280;37112;45.892;-123.962;2023-08-21T06:17:11;101203.11;;;15.05;75.68
51067;BME280;37112;45.892;-123.962;2023-08-21T06:19:21;101203.95;;;15.03;75.64
51067;BME280;37112;45.892;-123.962;2023-08-21T06:21:30;101210.11;;;15.04;75.77
51067;BME280;37112;45.892;-123.962;2023-08-21T06:23:40;101210.92;;;15.03;75.71
51067;BME280;37112;45.892;-123.962;2023-08-21T06:25:51;101209.88;;;15.00;75.92
51067;BME280;37112;45.892;-123.962;2023-08-21T06:28:01;101213.44;;;14.98;75.98
51067;BME280;37112;45.892;-123.962;2023-08-21T06:30:13;101212.71;;;14.96;75.94
51067;BME280;37112;45.892;-123.962;2023-08-21T06:32:25;101211.38;;;14.95;76.03
51067;BME280;37112;45.892;-123.962;2023-08-21T06:34:35;101213.11;;;14.96;76.12
51067;BME280;37112;45.892;-123.962;2023-08-21T06:36:45;101209.81;;;14.97;76.07
51067;BME280;37112;45.892;-123.962;2023-08-21T06:38:56;101209.00;;;14.98;76.13
51067;BME280;37112;45.892;-123.962;2023-08-21T06:41:06;101210.56;;;14.98;76.15
51067;BME280;37112;45.892;-123.962;2023-08-21T06:43:19;101208.91;;;14.97;76.20
51067;BME280;37112;45.892;-123.962;2023-08-21T06:45:30;101207.26;;;14.95;76.09
51067;BME280;37112;45.892;-123.962;2023-08-21T06:47:41;101207.62;;;14.95;76.17
51067;BME280;37112;45.892;-123.962;2023-08-21T06:49:50;101207.48;;;14.95;76.30
51067;BME280;37112;45.892;-123.962;2023-08-21T06:52:00;101207.21;;;14.93;76.20
51067;BME280;37112;45.892;-123.962;2023-08-21T06:54:10;101203.98;;;14.93;76.32
51067;BME280;37112;45.892;-123.962;2023-08-21T06:56:20;101205.09;;;14.91;76.31
51067;BME280;37112;45.892;-123.962;2023-08-21T06:58:29;101207.39;;;14.89;76.31
51067;BME280;37112;45.892;-123.962;2023-08-21T07:00:39;101202.44;;;14.91;76.38
51067;BME280;37112;45.892;-123.962;2023-08-21T07:02:49;101205.13;;;14.88;76.10
51067;BME280;37112;45.892;-123.962;2023-08-21T07:04:59;101202.94;;;14.86;76.52
51067;BME280;37112;45.892;-123.962;2023-08-21T07:07:08;101202.31;;;14.85;76.50
51067;BME280;37112;45.892;-123.962;2023-08-21T07:09:18;101201.31;;;14.86;76.61
51067;BME280;37112;45.892;-123.962;2023-08-21T07:11:28;101204.70;;;14.89;76.65
51067;BME280;37112;45.892;-123.962;2023-08-21T07:13:37;101197.23;;;14.91;76.55
51067;BME280;37112;45.892;-123.962;2023-08-21T07:15:47;101199.02;;;14.91;76.47
51067;BME280;37112;45.892;-123.962;2023-08-21T07:17:57;101198.27;;;14.91;76.45
51067;BME280;37112;45.892;-123.962;2023-08-21T07:20:08;101196.29;;;14.91;76.39
51067;BME280;37112;45.892;-123.962;2023-08-21T07:22:18;101195.10;;;14.89;76.42
51067;BME280;37112;45.892;-123.962;2023-08-21T07:24:28;101195.92;;;14.87;76.45
51067;BME280;37112;45.892;-123.962;2023-08-21T07:26:37;101197.30;;;14.85;76.39
51067;BME280;37112;45.892;-123.962;2023-08-21T07:28:47;101196.64;;;14.85;76.47
51067;BME280;37112;45.892;-123.962;2023-08-21T07:31:00;101195.56;;;14.85;76.50
51067;BME280;37112;45.892;-123.962;2023-08-21T07:33:10;101193.98;;;14.82;76.43
51067;BME280;37112;45.892;-123.962;2023-08-21T07:35:20;101196.25;;;14.81;76.38
51067;BME280;37112;45.892;-123.962;2023-08-21T07:37:29;101192.01;;;14.78;76.44
51067;BME280;37112;45.892;-123.962;2023-08-21T07:39:39;101190.29;;;14.74;76.43
51067;BME280;37112;45.892;-123.962;2023-08-21T07:41:49;101192.16;;;14.73;76.60
51067;BME280;37112;45.892;-123.962;2023-08-21T07:44:00;101190.04;;;14.73;76.71
51067;BME280;37112;45.892;-123.962;2023-08-21T07:46:11;101190.17;;;14.71;76.69
51067;BME280;37112;45.892;-123.962;2023-08-21T07:48:23;101189.82;;;14.71;76.65
51067;BME280;37112;45.892;-123.962;2023-08-21T07:50:33;101191.36;;;14.69;76.62
51067;BME280;37112;45.892;-123.962;2023-08-21T07:52:43;101187.90;;;14.68;76.57
51067;BME280;37112;45.892;-123.962;2023-08-21T07:54:54;101184.73;;;14.65;76.59
51067;BME280;37112;45.892;-123.962;2023-08-21T07:57:04;101186.95;;;14.62;76.58
51067;BME280;37112;45.892;-123.962;2023-08-21T07:59:14;101184.14;;;14.61;76.73
51067;BME280;37112;45.892;-123.962;2023-08-21T08:01:24;101185.98;;;14.61;76.69
51067;BME280;37112;45.892;-123.962;2023-08-21T08:03:34;101186.42;;;14.60;76.69
51067;BME280;37112;45.892;-123.962;2023-08-21T08:05:43;101183.40;;;14.57;76.62
51067;BME280;37112;45.892;-123.962;2023-08-21T08:08:02;101182.67;;;14.55;76.73
51067;BME280;37112;45.892;-123.962;2023-08-21T08:10:11;101183.42;;;14.54;76.78
51067;BME280;37112;45.892;-123.962;2023-08-21T08:12:21;101182.30;;;14.53;76.75
51067;BME280;37112;45.892;-123.962;2023-08-21T08:14:31;101179.55;;;14.51;76.85
51067;BME280;37112;45.892;-123.962;2023-08-21T08:16:40;101179.55;;;14.51;76.94
51067;BME280;37112;45.892;-123.962;2023-08-21T08:18:50;101177.54;;;14.50;76.92
51067;BME280;37112;45.892;-123.962;2023-08-21T08:20:59;101174.88;;;14.49;77.09
51067;BME280;37112;45.892;-123.962;2023-08-21T08:23:09;101177.61;;;14.51;77.11
51067;BME280;37112;45.892;-123.962;2023-08-21T08:25:18;101177.98;;;14.51;77.24
51067;BME280;37112;45.892;-123.962;2023-08-21T08:27:28;101171.48;;;14.49;77.22
51067;BME280;37112;45.892;-123.962;2023-08-21T08:29:37;101170.90;;;14.48;77.20
51067;BME280;37112;45.892;-123.962;2023-08-21T08:31:47;101166.55;;;14.46;77.15
51067;BME280;37112;45.892;-123.962;2023-08-21T08:33:57;101168.00;;;14.45;77.23
51067;BME280;37112;45.892;-123.962;2023-08-21T08:36:07;101170.92;;;14.44;77.21
51067;BME280;37112;45.892;-123.962;2023-08-21T08:38:17;101167.86;;;14.43;77.18
51067;BME280;37112;45.892;-123.962;2023-08-21T08:40:28;101167.35;;;14.40;77.16
51067;BME280;37112;45.892;-123.962;2023-08-21T08:42:37;101166.65;;;14.37;77.21
51067;BME280;37112;45.892;-123.962;2023-08-21T08:44:49;101162.80;;;14.36;77.32
51067;BME280;37112;45.892;-123.962;2023-08-21T08:46:59;101163.56;;;14.34;77.32
51067;BME280;37112;45.892;-123.962;2023-08-21T08:49:11;101170.84;;;14.32;77.43
51067;BME280;37112;45.892;-123.962;2023-08-21T08:51:20;101167.68;;;14.31;77.48
51067;BME280;37112;45.892;-123.962;2023-08-21T08:53:31;101166.26;;;14.28;77.50
51067;BME280;37112;45.892;-123.962;2023-08-21T08:55:41;101164.44;;;14.27;77.46
51067;BME280;37112;45.892;-123.962;2023-08-21T08:57:52;101162.08;;;14.25;77.55
51067;BME280;37112;45.892;-123.962;2023-08-21T09:00:02;101161.48;;;14.23;77.69
51067;BME280;37112;45.892;-123.962;2023-08-21T09:02:12;101163.06;;;14.21;77.73
51067;BME280;37112;45.892;-123.962;2023-08-21T09:04:23;101157.60;;;14.20;77.83
51067;BME280;37112;45.892;-123.962;2023-08-21T09:06:34;101164.14;;;14.18;77.77
51067;BME280;37112;45.892;-123.962;2023-08-21T09:08:55;101159.92;;;14.18;77.90
51067;BME280;37112;45.892;-123.962;2023-08-21T09:11:05;101160.05;;;14.18;77.95
51067;BME280;37112;45.892;-123.962;2023-08-21T09:13:16;101160.36;;;14.17;77.86
51067;BME280;37112;45.892;-123.962;2023-08-21T09:15:29;101160.27;;;14.15;77.98
51067;BME280;37112;45.892;-123.962;2023-08-21T09:17:56;101163.58;;;14.14;77.82
51067;BME280;37112;45.892;-123.962;2023-08-21T09:20:10;101163.16;;;14.12;77.89
51067;BME280;37112;45.892;-123.962;2023-08-21T09:22:20;101166.04;;;14.10;77.87
51067;BME280;37112;45.892;-123.962;2023-08-21T09:24:30;101161.53;;;14.08;77.83
51067;BME280;37112;45.892;-123.962;2023-08-21T09:26:40;101160.62;;;14.06;77.82
51067;BME280;37112;45.892;-123.962;2023-08-21T09:28:52;101160.26;;;14.04;77.92
51067;BME280;37112;45.892;-123.962;2023-08-21T09:31:02;101156.77;;;14.03;77.85
51067;BME280;37112;45.892;-123.962;2023-08-21T09:33:11;101154.54;;;13.99;77.90
51067;BME280;37112;45.892;-123.962;2023-08-21T09:35:22;101153.38;;;13.96;77.96
51067;BME280;37112;45.892;-123.962;2023-08-21T09:37:31;101149.79;;;13.94;77.87
51067;BME280;37112;45.892;-123.962;2023-08-21T09:39:41;101144.98;;;13.91;77.89
51067;BME280;37112;45.892;-123.962;2023-08-21T09:41:58;101147.71;;;13.88;77.90
51067;BME280;37112;45.892;-123.962;2023-08-21T09:44:08;101149.36;;;13.85;77.85
51067;BME280;37112;45.892;-123.962;2023-08-21T09:46:23;101148.70;;;13.82;77.91
51067;BME280;37112;45.892;-123.962;2023-08-21T09:48:33;101144.95;;;13.80;77.88
51067;BME280;37112;45.892;-123.962;2023-08-21T09:50:44;101144.20;;;13.78;77.93
51067;BME280;37112;45.892;-123.962;2023-08-21T09:52:55;101141.06;;;13.74;77.92
51067;BME280;37112;45.892;-123.962;2023-08-21T09:55:07;101141.19;;;13.73;78.04
51067;BME280;37112;45.892;-123.962;2023-08-21T09:57:17;101144.77;;;13.70;78.14
51067;BME280;37112;45.892;-123.962;2023-08-21T09:59:27;101141.02;;;13.67;78.09
51067;BME280;37112;45.892;-123.962;2023-08-21T10:01:38;101145.54;;;13.64;78.15
51067;BME280;37112;45.892;-123.962;2023-08-21T10:03:48;101143.52;;;13.62;78.20
51067;BME280;37112;45.892;-123.962;2023-08-21T10:05:59;101141.46;;;13.61;78.31
51067;BME280;37112;45.892;-123.962;2023-08-21T10:08:11;101142.39;;;13.61;78.39
51067;BME280;37112;45.892;-123.962;2023-08-21T10:10:21;101145.42;;;13.58;78.29
51067;BME280;37112;45.892;-123.962;2023-08-21T10:12:31;101145.92;;;13.57;78.26
51067;BME280;37112;45.892;-123.962;2023-08-21T10:14:41;101144.86;;;13.54;78.31
51067;BME280;37112;45.892;-123.962;2023-08-21T10:16:52;101149.02;;;13.53;78.33
51067;BME280;37112;45.892;-123.962;2023-08-21T10:19:06;101150.41;;;13.51;78.33
51067;BME280;37112;45.892;-123.962;2023-08-21T10:21:17;101153.02;;;13.48;78.24
51067;BME280;37112;45.892;-123.962;2023-08-21T10:23:28;101153.50;;;13.43;78.25
51067;BME280;37112;45.892;-123.962;2023-08-21T10:25:43;101155.78;;;13.41;78.37
51067;BME280;37112;45.892;-123.962;2023-08-21T10:27:54;101154.51;;;13.39;78.43
51067;BME280;37112;45.892;-123.962;2023-08-21T10:30:14;101151.89;;;13.38;78.55
51067;BME280;37112;45.892;-123.962;2023-08-21T10:32:25;101156.95;;;13.37;78.73
51067;BME280;37112;45.892;-123.962;2023-08-21T10:34:37;101152.66;;;13.35;78.69
51067;BME280;37112;45.892;-123.962;2023-08-21T10:37:09;101149.69;;;13.32;78.84
51067;BME280;37112;45.892;-123.962;2023-08-21T10:39:22;101150.53;;;13.30;78.74
51067;BME280;37112;45.892;-123.962;2023-08-21T10:41:32;101145.84;;;13.26;78.88
51067;BME280;37112;45.892;-123.962;2023-08-21T10:43:46;101140.70;;;13.23;78.82
51067;BME280;37112;45.892;-123.962;2023-08-21T10:45:59;101143.80;;;13.22;78.93
51067;BME280;37112;45.892;-123.962;2023-08-21T10:48:09;101138.76;;;13.20;78.91
51067;BME280;37112;45.892;-123.962;2023-08-21T10:50:18;101140.95;;;13.19;79.06
51067;BME280;37112;45.892;-123.962;2023-08-21T10:52:30;101140.29;;;13.19;79.12
51067;BME280;37112;45.892;-123.962;2023-08-21T10:54:46;101143.59;;;13.17;79.07
51067;BME280;37112;45.892;-123.962;2023-08-21T10:56:56;101141.35;;;13.13;78.92